Time;durP1;ratioP1;P1;durP2;ratioP2;P2;SDS_P1;SDS_P2;PMS_P1;PMS_P2;Temp;Humidity;BMP_temperature;BMP_pressure;BME280_temperature;BME280_humidity;BME280_pressure;Samples;Min_cycle;Max_cycle;Signal;HPM_P1;HPM_P2
2022/05/27 00:01:07;;;;;;;;;;;13.60;99.90;;;;;;5077063;28;20380;-75
2022/05/27 00:03:33;;;;;;;;;;;13.60;99.90;;;;;;5058601;28;20063;-75
2022/05/27 00:05:58;;;;;;;;;;;13.70;99.90;;;;;;5058779;28;19938;-75
2022/05/27 00:08:25;;;;;;;;;;;13.80;99.90;;;;;;5076459;28;19917;-75
2022/05/27 00:10:51;;;;;;;;;;;13.80;99.90;;;;;;5076622;28;19908;-74
2022/05/27 00:13:17;;;;;;;;;;;13.80;99.90;;;;;;5076409;28;20383;-75
2022/05/27 00:15:42;;;;;;;;;;;13.80;99.90;;;;;;5076522;28;19909;-74
2022/05/27 00:18:08;;;;;;;;;;;13.80;99.90;;;;;;5076458;28;19996;-75
2022/05/27 00:20:34;;;;;;;;;;;13.90;99.90;;;;;;5076437;28;20364;-75
2022/05/27 00:23:00;;;;;;;;;;;13.90;99.90;;;;;;5076316;28;20368;-75
2022/05/27 00:25:25;;;;;;;;;;;13.90;99.90;;;;;;5076925;28;19915;-75
2022/05/27 00:27:51;;;;;;;;;;;13.90;99.90;;;;;;5058372;28;20276;-75
2022/05/27 00:30:16;;;;;;;;;;;13.90;99.90;;;;;;5058252;28;19915;-75
2022/05/27 00:32:42;;;;;;;;;;;13.90;99.90;;;;;;5058147;28;19908;-75
2022/05/27 00:35:08;;;;;;;;;;;13.90;99.90;;;;;;5075833;28;20445;-75
2022/05/27 00:37:34;;;;;;;;;;;13.90;99.90;;;;;;5076100;28;19912;-75
2022/05/27 00:39:59;;;;;;;;;;;13.90;99.90;;;;;;5076422;28;19999;-75
2022/05/27 00:42:25;;;;;;;;;;;13.90;99.90;;;;;;5057994;28;19962;-75
2022/05/27 00:44:50;;;;;;;;;;;13.90;99.90;;;;;;5075957;28;19978;-75
2022/05/27 00:47:18;;;;;;;;;;;13.90;99.90;;;;;;5076210;28;19974;-74
2022/05/27 00:49:46;;;;;;;;;;;13.90;99.90;;;;;;5075979;28;19948;-75
2022/05/27 00:52:13;;;;;;;;;;;13.90;99.90;;;;;;5075687;28;19931;-75
2022/05/27 00:54:40;;;;;;;;;;;13.90;99.90;;;;;;5076423;28;20364;-75
2022/05/27 00:57:09;;;;;;;;;;;13.90;99.90;;;;;;5076059;28;20323;-75
2022/05/27 00:59:54;;;;;;;;;;;13.80;99.90;;;;;;5076248;28;19915;-75
2022/05/27 01:02:20;;;;;;;;;;;13.80;99.90;;;;;;5057657;28;19954;-75
2022/05/27 01:04:46;;;;;;;;;;;13.70;99.90;;;;;;5057738;28;19909;-75
2022/05/27 01:07:12;;;;;;;;;;;13.70;99.90;;;;;;5057702;28;19916;-75
2022/05/27 01:09:39;;;;;;;;;;;13.80;99.90;;;;;;5075493;28;20004;-75
2022/05/27 01:12:16;;;;;;;;;;;13.80;99.90;;;;;;5057525;28;20364;-75
2022/05/27 01:14:41;;;;;;;;;;;13.80;99.90;;;;;;5075438;28;20003;-75
2022/05/27 01:17:10;;;;;;;;;;;13.80;99.90;;;;;;5075373;28;19956;-75
2022/05/27 01:22:39;;;;;;;;;;;13.60;99.90;;;;;;5075486;28;19915;-75
2022/05/27 01:25:08;;;;;;;;;;;13.50;99.90;;;;;;5075221;28;19912;-75
2022/05/27 01:27:34;;;;;;;;;;;13.50;99.90;;;;;;5075078;28;20368;-75
2022/05/27 01:30:08;;;;;;;;;;;13.40;99.90;;;;;;5075085;28;19915;-75
2022/05/27 01:32:36;;;;;;;;;;;13.40;99.90;;;;;;5056961;28;19920;-75
2022/05/27 01:35:08;;;;;;;;;;;13.40;99.90;;;;;;5075000;28;20388;-75
2022/05/27 01:37:33;;;;;;;;;;;13.40;99.90;;;;;;5057010;28;20325;-75
2022/05/27 01:40:17;;;;;;;;;;;13.40;99.90;;;;;;5056908;28;19958;-75
2022/05/27 01:42:45;;;;;;;;;;;13.30;99.90;;;;;;5074904;28;20284;-75
2022/05/27 01:45:29;;;;;;;;;;;13.20;99.90;;;;;;5056868;28;19908;-75
2022/05/27 01:48:01;;;;;;;;;;;13.10;99.90;;;;;;5073872;28;19912;-75
2022/05/27 01:50:34;;;;;;;;;;;13.00;99.90;;;;;;5075016;28;19916;-75
2022/05/27 01:53:08;;;;;;;;;;;13.10;99.90;;;;;;5074553;28;19954;-75
2022/05/27 01:55:35;;;;;;;;;;;13.10;99.90;;;;;;5074624;28;19962;-75
2022/05/27 01:58:22;;;;;;;;;;;13.10;99.90;;;;;;5074552;28;19934;-75
2022/05/27 02:00:49;;;;;;;;;;;13.10;99.90;;;;;;5074556;28;19995;-75
2022/05/27 02:03:25;;;;;;;;;;;13.10;99.90;;;;;;5056420;28;19908;-76
2022/05/27 02:05:54;;;;;;;;;;;13.10;99.90;;;;;;5074662;28;19909;-75
2022/05/27 02:08:21;;;;;;;;;;;13.10;99.90;;;;;;5073915;28;20254;-76
2022/05/27 02:10:53;;;;;;;;;;;13.00;99.90;;;;;;5073802;28;19909;-75
2022/05/27 02:13:23;;;;;;;;;;;13.00;99.90;;;;;;5073821;28;19909;-76
2022/05/27 02:15:51;;;;;;;;;;;13.00;99.90;;;;;;5073833;28;20422;-75
2022/05/27 02:18:37;;;;;;;;;;;13.00;99.90;;;;;;5074164;28;20264;-75
2022/05/27 02:21:10;;;;;;;;;;;12.90;99.90;;;;;;5073214;28;19951;-75
2022/05/27 02:23:41;;;;;;;;;;;12.80;99.90;;;;;;5074302;28;19908;-75
2022/05/27 02:26:11;;;;;;;;;;;12.70;99.90;;;;;;5056184;28;20279;-76
2022/05/27 02:28:39;;;;;;;;;;;12.50;99.90;;;;;;5074356;28;19913;-76
2022/05/27 02:31:07;;;;;;;;;;;12.40;99.90;;;;;;5074011;28;19909;-76
2022/05/27 02:36:51;;;;;;;;;;;12.20;99.90;;;;;;5074634;28;20322;-76
2022/05/27 02:39:17;;;;;;;;;;;12.20;99.90;;;;;;5052050;28;20475;-76
2022/05/27 02:41:45;;;;;;;;;;;12.20;99.90;;;;;;5056167;28;19951;-76
2022/05/27 02:44:14;;;;;;;;;;;12.20;99.90;;;;;;5055889;28;19975;-76
2022/05/27 02:46:39;;;;;;;;;;;12.20;99.90;;;;;;5074071;28;20346;-76
2022/05/27 02:49:13;;;;;;;;;;;12.30;99.90;;;;;;5055785;28;19999;-75
2022/05/27 02:51:54;;;;;;;;;;;12.30;99.90;;;;;;5074271;28;19908;-75
2022/05/27 02:54:39;;;;;;;;;;;12.20;99.90;;;;;;5073767;28;20058;-75
2022/05/27 02:57:13;;;;;;;;;;;12.20;99.90;;;;;;5073705;28;20284;-75
2022/05/27 02:59:39;;;;;;;;;;;12.20;99.90;;;;;;5055602;28;19909;-75
2022/05/27 03:02:06;;;;;;;;;;;12.20;99.90;;;;;;5073586;28;19915;-76
2022/05/27 03:04:32;;;;;;;;;;;12.20;99.90;;;;;;5074274;28;19943;-76
2022/05/27 03:07:08;;;;;;;;;;;12.20;99.90;;;;;;5073462;28;20021;-75
2022/05/27 03:09:34;;;;;;;;;;;12.20;99.90;;;;;;5073914;28;19916;-76
2022/05/27 03:12:18;;;;;;;;;;;12.20;99.90;;;;;;5073510;28;20296;-76
2022/05/27 03:15:13;;;;;;;;;;;12.00;99.90;;;;;;5073908;28;19921;-76
2022/05/27 03:17:57;;;;;;;;;;;11.90;99.90;;;;;;4984949;28;20381;-76
2022/05/27 03:20:26;;;;;;;;;;;11.80;99.90;;;;;;5073505;28;19909;-76
2022/05/27 03:22:58;;;;;;;;;;;11.70;99.90;;;;;;5074499;28;19916;-76
2022/05/27 03:25:32;;;;;;;;;;;11.60;99.90;;;;;;5073806;28;20285;-76
2022/05/27 03:28:00;;;;;;;;;;;11.60;99.90;;;;;;5055375;28;19920;-76
2022/05/27 03:30:30;;;;;;;;;;;11.60;99.90;;;;;;5073653;28;20364;-76
2022/05/27 03:33:14;;;;;;;;;;;11.60;99.90;;;;;;5073407;28;19909;-76
2022/05/27 03:35:43;;;;;;;;;;;11.70;99.90;;;;;;5055368;28;19967;-76
2022/05/27 03:38:18;;;;;;;;;;;11.70;99.90;;;;;;5073279;28;20475;-76
2022/05/27 03:40:53;;;;;;;;;;;11.70;99.90;;;;;;5073274;28;19912;-76
2022/05/27 03:43:20;;;;;;;;;;;11.70;99.90;;;;;;5055130;28;19908;-75
2022/05/27 03:45:50;;;;;;;;;;;11.80;99.90;;;;;;5073522;28;20429;-76
2022/05/27 03:48:16;;;;;;;;;;;11.80;99.90;;;;;;5073367;28;19912;-76
2022/05/27 03:50:42;;;;;;;;;;;11.70;99.90;;;;;;5074621;28;19919;-76
2022/05/27 03:53:07;;;;;;;;;;;11.50;99.90;;;;;;5080653;28;19913;-76
2022/05/27 03:55:33;;;;;;;;;;;11.30;99.90;;;;;;5092866;28;19912;-76
2022/05/27 03:57:58;;;;;;;;;;;11.20;99.90;;;;;;5075766;28;19915;-76
2022/05/27 04:00:24;;;;;;;;;;;11.20;99.90;;;;;;5075182;28;19908;-76
2022/05/27 04:02:50;;;;;;;;;;;11.20;99.90;;;;;;5093259;28;19931;-76
2022/05/27 04:05:17;;;;;;;;;;;11.10;99.90;;;;;;5093320;28;19914;-75
2022/05/27 04:07:43;;;;;;;;;;;11.20;99.90;;;;;;5093148;28;19916;-76
2022/05/27 04:10:09;;;;;;;;;;;11.20;99.90;;;;;;5093805;28;20437;-76
2022/05/27 04:12:35;;;;;;;;;;;11.20;99.90;;;;;;5076802;28;19912;-76
2022/05/27 04:15:02;;;;;;;;;;;11.20;99.90;;;;;;5076836;28;20328;-75
2022/05/27 04:17:30;;;;;;;;;;;11.20;99.90;;;;;;5081557;28;19919;-75
2022/05/27 04:20:15;;;;;;;;;;;11.20;99.90;;;;;;5096397;28;20253;-76
2022/05/27 04:22:41;;;;;;;;;;;11.20;99.90;;;;;;5095274;28;19912;-75
2022/05/27 04:25:07;;;;;;;;;;;11.20;99.90;;;;;;5094678;28;19908;-75
2022/05/27 04:27:36;;;;;;;;;;;11.10;99.90;;;;;;5094658;28;20030;-75
2022/05/27 04:30:02;;;;;;;;;;;11.10;99.90;;;;;;5094654;28;19991;-75
2022/05/27 04:32:27;;;;;;;;;;;11.20;99.90;;;;;;5094562;28;19909;-76
2022/05/27 04:34:53;;;;;;;;;;;11.10;99.90;;;;;;5094409;28;19916;-76
2022/05/27 04:37:20;;;;;;;;;;;11.10;99.90;;;;;;5094702;28;20368;-76
2022/05/27 04:39:45;;;;;;;;;;;11.20;99.90;;;;;;5078161;28;19908;-76
2022/05/27 04:42:11;;;;;;;;;;;11.20;99.90;;;;;;5078057;28;20378;-76
2022/05/27 04:44:37;;;;;;;;;;;11.30;99.90;;;;;;5096575;28;19953;-76
2022/05/27 04:47:02;;;;;;;;;;;11.30;99.90;;;;;;5078025;28;20356;-76
2022/05/27 04:52:13;;;;;;;;;;;11.40;99.90;;;;;;5096631;28;19958;-76
2022/05/27 04:54:39;;;;;;;;;;;11.40;99.90;;;;;;5096064;28;19908;-76
2022/05/27 04:57:04;;;;;;;;;;;11.40;99.90;;;;;;5096030;28;19915;-76
2022/05/27 04:59:31;;;;;;;;;;;11.40;99.90;;;;;;5096006;28;19912;-75
2022/05/27 05:01:57;;;;;;;;;;;11.50;99.90;;;;;;5096173;28;20371;-76
2022/05/27 05:04:22;;;;;;;;;;;11.50;99.90;;;;;;5095921;28;19915;-76
2022/05/27 05:06:48;;;;;;;;;;;11.50;99.90;;;;;;5077537;28;19915;-76
2022/05/27 05:09:13;;;;;;;;;;;11.50;99.90;;;;;;5096080;28;20010;-74
2022/05/27 05:11:39;;;;;;;;;;;11.50;99.90;;;;;;5095655;28;20390;-75
2022/05/27 05:14:04;;;;;;;;;;;11.60;99.90;;;;;;5095940;28;19999;-76
2022/05/27 05:16:30;;;;;;;;;;;11.60;99.90;;;;;;5077514;28;19995;-76
2022/05/27 05:18:55;;;;;;;;;;;11.60;99.90;;;;;;5095844;28;19908;-76
2022/05/27 05:21:21;;;;;;;;;;;11.70;99.90;;;;;;5094699;28;20287;-76
2022/05/27 05:23:46;;;;;;;;;;;11.70;99.90;;;;;;5095158;28;19908;-76
2022/05/27 05:26:12;;;;;;;;;;;11.70;99.90;;;;;;5095401;28;19911;-76
2022/05/27 05:28:38;;;;;;;;;;;11.70;99.90;;;;;;5095288;28;19977;-76
2022/05/27 05:31:04;;;;;;;;;;;11.80;99.90;;;;;;5095341;28;20002;-76
2022/05/27 05:33:30;;;;;;;;;;;11.90;99.90;;;;;;5077064;28;19909;-76
2022/05/27 05:35:55;;;;;;;;;;;12.00;99.90;;;;;;5077048;28;19908;-76
2022/05/27 05:38:21;;;;;;;;;;;12.00;99.90;;;;;;5095205;28;19908;-76
2022/05/27 05:40:46;;;;;;;;;;;12.10;99.90;;;;;;5095146;28;20386;-76
2022/05/27 05:43:13;;;;;;;;;;;12.10;99.90;;;;;;5095325;28;19908;-76
2022/05/27 05:45:39;;;;;;;;;;;12.20;99.90;;;;;;5095099;28;19908;-76
2022/05/27 05:48:05;;;;;;;;;;;12.20;99.90;;;;;;5094993;28;19989;-76
2022/05/27 05:50:32;;;;;;;;;;;12.30;99.90;;;;;;5094995;28;19912;-76
2022/05/27 05:52:58;;;;;;;;;;;12.40;99.90;;;;;;5094895;28;20372;-75
2022/05/27 05:55:24;;;;;;;;;;;12.50;99.90;;;;;;5094898;28;19912;-76
2022/05/27 05:57:50;;;;;;;;;;;12.60;99.90;;;;;;5094937;28;19954;-76
2022/05/27 06:00:21;;;;;;;;;;;12.70;99.90;;;;;;5095203;28;19908;-76
2022/05/27 06:02:46;;;;;;;;;;;12.80;99.90;;;;;;5094882;28;19908;-76
2022/05/27 06:05:12;;;;;;;;;;;12.80;99.90;;;;;;5094757;28;19930;-76
2022/05/27 06:07:38;;;;;;;;;;;12.90;99.90;;;;;;5094477;28;20286;-76
2022/05/27 06:10:05;;;;;;;;;;;13.00;99.90;;;;;;5095058;28;20292;-76
2022/05/27 06:12:35;;;;;;;;;;;13.10;99.90;;;;;;5094563;28;19947;-75
2022/05/27 06:15:01;;;;;;;;;;;13.20;99.90;;;;;;5094554;28;19936;-75
2022/05/27 06:17:27;;;;;;;;;;;13.30;99.90;;;;;;5094828;28;19951;-75
2022/05/27 06:19:52;;;;;;;;;;;13.50;99.90;;;;;;5094501;28;19931;-75
2022/05/27 06:22:18;;;;;;;;;;;13.50;99.90;;;;;;5094404;28;20367;-75
2022/05/27 06:24:44;;;;;;;;;;;13.70;99.90;;;;;;5094735;28;19974;-75
2022/05/27 06:27:09;;;;;;;;;;;13.80;99.90;;;;;;5094231;28;19912;-75
2022/05/27 06:35:04;;;;;;;;;;;14.10;99.90;;;;;;5094564;28;20559;-76
2022/05/27 06:37:29;;;;;;;;;;;14.20;99.90;;;;;;5094181;28;19908;-75
2022/05/27 06:39:55;;;;;;;;;;;14.30;99.90;;;;;;5094726;28;20348;-76
2022/05/27 06:42:20;;;;;;;;;;;14.40;99.90;;;;;;5094899;28;20367;-76
2022/05/27 06:44:47;;;;;;;;;;;14.40;99.90;;;;;;5094368;28;19924;-76
2022/05/27 06:47:13;;;;;;;;;;;14.60;99.90;;;;;;5093959;28;19912;-75
2022/05/27 06:49:39;;;;;;;;;;;14.70;99.90;;;;;;5094050;28;19989;-76
2022/05/27 06:52:06;;;;;;;;;;;14.80;99.90;;;;;;5094245;28;19991;-75
2022/05/27 06:54:31;;;;;;;;;;;14.90;99.90;;;;;;5094543;28;19908;-75
2022/05/27 06:56:57;;;;;;;;;;;15.10;99.90;;;;;;5094178;28;19918;-75
2022/05/27 06:59:23;;;;;;;;;;;15.20;99.90;;;;;;5094235;28;19915;-75
2022/05/27 07:01:49;;;;;;;;;;;15.30;99.90;;;;;;5094025;28;19916;-75
2022/05/27 07:04:15;;;;;;;;;;;15.40;99.90;;;;;;5093892;28;19919;-75
2022/05/27 07:06:43;;;;;;;;;;;15.60;99.90;;;;;;5093657;28;19912;-75
2022/05/27 07:09:09;;;;;;;;;;;15.70;99.90;;;;;;5094673;28;20284;-75
2022/05/27 07:11:35;;;;;;;;;;;15.90;99.90;;;;;;5094256;28;20288;-75
2022/05/27 07:14:01;;;;;;;;;;;16.10;99.90;;;;;;5094030;28;20427;-75
2022/05/27 07:16:29;;;;;;;;;;;16.20;99.90;;;;;;5090526;28;20026;-74
2022/05/27 07:18:55;;;;;;;;;;;16.30;99.90;;;;;;5035355;28;19909;-75
2022/05/27 07:21:21;;;;;;;;;;;16.50;99.90;;;;;;5051770;28;19916;-75
2022/05/27 07:23:47;;;;;;;;;;;16.60;99.90;;;;;;5052017;28;20303;-75
2022/05/27 07:26:12;;;;;;;;;;;16.80;99.90;;;;;;5052952;28;19909;-75
2022/05/27 07:28:38;;;;;;;;;;;16.80;99.90;;;;;;5053069;28;19913;-75
2022/05/27 07:31:04;;;;;;;;;;;17.00;99.90;;;;;;5053305;28;20440;-75
2022/05/27 07:33:29;;;;;;;;;;;17.10;99.90;;;;;;5053214;28;19974;-75
2022/05/27 07:35:55;;;;;;;;;;;17.20;99.90;;;;;;5053570;28;20000;-75
2022/05/27 07:38:21;;;;;;;;;;;17.30;99.90;;;;;;5053206;28;19988;-75
2022/05/27 07:40:46;;;;;;;;;;;17.50;99.90;;;;;;5053175;28;19916;-75
2022/05/27 07:43:12;;;;;;;;;;;17.70;99.90;;;;;;5035376;28;19909;-75
2022/05/27 07:45:40;;;;;;;;;;;17.80;99.90;;;;;;5054847;28;20007;-75
2022/05/27 07:48:06;;;;;;;;;;;18.00;99.90;;;;;;5057508;28;19920;-75
2022/05/27 07:50:32;;;;;;;;;;;18.00;99.90;;;;;;5056843;28;19909;-75
2022/05/27 07:52:58;;;;;;;;;;;18.10;99.90;;;;;;5038992;28;19912;-75
2022/05/27 07:55:23;;;;;;;;;;;18.20;99.90;;;;;;5056884;28;19913;-75
2022/05/27 07:57:49;;;;;;;;;;;18.30;99.90;;;;;;5057169;28;19915;-75
2022/05/27 08:00:16;;;;;;;;;;;18.40;99.90;;;;;;5056804;28;19915;-75
2022/05/27 08:02:42;;;;;;;;;;;18.60;99.90;;;;;;5056687;28;19909;-74
2022/05/27 08:05:09;;;;;;;;;;;18.70;99.90;;;;;;5056981;28;19916;-75
2022/05/27 08:07:35;;;;;;;;;;;18.80;99.90;;;;;;5056392;28;20014;-75
2022/05/27 08:10:00;;;;;;;;;;;19.00;99.90;;;;;;5056639;28;19913;-74
2022/05/27 08:12:26;;;;;;;;;;;19.10;99.90;;;;;;5056567;28;19952;-75
2022/05/27 08:14:51;;;;;;;;;;;19.20;99.90;;;;;;5056632;28;19916;-74
2022/05/27 08:17:17;;;;;;;;;;;19.30;99.00;;;;;;5056508;28;19915;-74
2022/05/27 08:19:42;;;;;;;;;;;19.40;97.90;;;;;;5056687;28;20004;-73
2022/05/27 08:22:08;;;;;;;;;;;19.50;97.70;;;;;;5056779;28;19909;-73
2022/05/27 08:24:33;;;;;;;;;;;19.60;96.70;;;;;;5056393;28;19920;-73
2022/05/27 08:26:59;;;;;;;;;;;19.70;97.10;;;;;;5056484;28;19913;-73
2022/05/27 08:29:25;;;;;;;;;;;19.90;97.60;;;;;;5038439;28;19962;-73
2022/05/27 08:31:50;;;;;;;;;;;20.10;97.40;;;;;;5056242;28;19931;-73
2022/05/27 08:39:47;;;;;;;;;;;20.40;94.90;;;;;;5056151;28;19974;-73
2022/05/27 08:42:24;;;;;;;;;;;20.40;94.80;;;;;;5055778;28;19908;-73
2022/05/27 08:44:59;;;;;;;;;;;20.50;94.70;;;;;;5056290;28;19916;-73
2022/05/27 08:47:44;;;;;;;;;;;20.70;95.00;;;;;;5056183;28;19917;-73
2022/05/27 08:50:12;;;;;;;;;;;20.80;94.00;;;;;;5052915;28;20023;-73
2022/05/27 08:52:50;;;;;;;;;;;20.90;93.10;;;;;;5074235;28;19913;-73
2022/05/27 09:01:13;;;;;;;;;;;21.20;92.10;;;;;;5075093;28;20034;-71
2022/05/27 09:03:46;;;;;;;;;;;21.30;91.90;;;;;;5074839;28;19908;-72
2022/05/27 09:06:13;;;;;;;;;;;21.40;91.40;;;;;;5075269;28;19909;-74
2022/05/27 09:08:39;;;;;;;;;;;21.60;92.80;;;;;;5057507;28;19916;-73
2022/05/27 09:11:22;;;;;;;;;;;21.70;90.90;;;;;;5075781;28;19912;-73
2022/05/27 09:14:00;;;;;;;;;;;21.50;89.70;;;;;;5075400;28;19908;-74
2022/05/27 09:16:25;;;;;;;;;;;21.30;88.90;;;;;;5075382;28;19995;-73
2022/05/27 09:19:23;;;;;;;;;;;21.10;91.10;;;;;;5057422;28;19967;-73
2022/05/27 09:21:58;;;;;;;;;;;21.00;92.10;;;;;;5020181;28;19919;-73
2022/05/27 09:24:26;;;;;;;;;;;21.00;91.50;;;;;;5075207;28;19992;-72
2022/05/27 09:27:02;;;;;;;;;;;21.30;91.90;;;;;;5057220;28;20352;-72
2022/05/27 09:29:48;;;;;;;;;;;21.40;90.60;;;;;;5075749;28;20375;-72
2022/05/27 09:32:19;;;;;;;;;;;21.60;90.40;;;;;;5057601;28;20297;-72
2022/05/27 09:34:47;;;;;;;;;;;21.70;90.90;;;;;;5075041;28;20397;-72
2022/05/27 09:37:19;;;;;;;;;;;21.80;88.80;;;;;;5075273;28;20003;-72
2022/05/27 09:39:44;;;;;;;;;;;22.00;90.40;;;;;;5075261;28;20425;-72
2022/05/27 09:42:16;;;;;;;;;;;22.10;89.70;;;;;;5074875;28;19908;-72
2022/05/27 09:44:42;;;;;;;;;;;22.30;87.70;;;;;;5074842;28;20346;-72
2022/05/27 09:47:07;;;;;;;;;;;22.40;88.20;;;;;;5074695;28;19916;-72
2022/05/27 09:49:34;;;;;;;;;;;22.50;86.30;;;;;;5075043;28;19909;-72
2022/05/27 09:52:01;;;;;;;;;;;22.50;85.00;;;;;;5075087;28;19958;-72
2022/05/27 09:54:26;;;;;;;;;;;22.50;85.50;;;;;;5075194;28;19909;-72
2022/05/27 09:57:14;;;;;;;;;;;22.50;83.40;;;;;;5074973;28;19915;-72
2022/05/27 09:59:43;;;;;;;;;;;22.60;84.60;;;;;;5075231;28;19970;-68
2022/05/27 10:02:14;;;;;;;;;;;22.60;85.10;;;;;;5074681;28;19913;-69
2022/05/27 10:04:52;;;;;;;;;;;22.60;88.10;;;;;;5074756;28;19913;-68
2022/05/27 10:07:24;;;;;;;;;;;22.70;85.10;;;;;;5073900;28;19917;-68
2022/05/27 10:09:50;;;;;;;;;;;22.90;86.70;;;;;;5056524;28;19958;-68
2022/05/27 10:12:27;;;;;;;;;;;22.80;83.50;;;;;;5074255;28;19912;-68
2022/05/27 10:14:52;;;;;;;;;;;22.90;80.90;;;;;;5074632;28;19908;-68
2022/05/27 10:17:27;;;;;;;;;;;22.70;81.90;;;;;;5074249;28;20325;-68
2022/05/27 10:20:12;;;;;;;;;;;22.50;83.40;;;;;;5056314;28;19969;-68
2022/05/27 10:22:37;;;;;;;;;;;22.60;80.30;;;;;;5074701;28;20261;-68
2022/05/27 10:25:05;;;;;;;;;;;22.80;81.10;;;;;;5074697;28;20007;-67
2022/05/27 10:27:35;;;;;;;;;;;22.90;82.50;;;;;;5074006;28;20319;-68
2022/05/27 10:30:04;;;;;;;;;;;23.10;86.90;;;;;;5074100;28;20317;-68
2022/05/27 10:32:35;;;;;;;;;;;23.20;84.50;;;;;;5055964;28;20008;-68
2022/05/27 10:35:07;;;;;;;;;;;23.30;80.80;;;;;;5074023;28;19932;-68
2022/05/27 10:37:47;;;;;;;;;;;23.40;82.40;;;;;;5074379;28;19908;-68
2022/05/27 10:40:14;;;;;;;;;;;23.50;79.90;;;;;;5073935;28;19959;-68
2022/05/27 10:42:49;;;;;;;;;;;23.60;83.40;;;;;;5074130;28;19908;-68
2022/05/27 10:45:17;;;;;;;;;;;23.80;79.60;;;;;;5074504;28;19919;-68
2022/05/27 10:47:53;;;;;;;;;;;23.90;77.10;;;;;;5073754;28;19913;-68
2022/05/27 10:50:31;;;;;;;1.92;0.93;;;24.00;77.70;;;;;;5073928;28;19994;-68
2022/05/27 10:53:02;;;;;;;;;;;24.20;79.50;;;;;;5073241;28;20024;-68
2022/05/27 10:55:42;;;;;;;;;;;24.30;74.50;;;;;;5070961;28;19908;-68
2022/05/27 11:04:32;;;;;;;2.50;1.00;;;24.30;75.60;;;;;;5051476;28;19966;-69
2022/05/27 11:07:10;;;;;;;2.13;0.80;;;24.40;73.10;;;;;;5033399;28;20028;-68
2022/05/27 11:09:42;;;;;;;1.80;1.20;;;24.40;74.90;;;;;;5051412;28;20092;-68
2022/05/27 11:12:10;;;;;;;;;;;24.50;73.70;;;;;;5033921;28;20071;-68
2022/05/27 11:15:12;;;;;;;1.27;0.70;;;24.60;73.20;;;;;;5045992;28;20319;-68
2022/05/27 11:18:05;;;;;;;3.65;1.00;;;24.70;75.10;;;;;;5063026;28;20037;-68
2022/05/27 11:20:55;;;;;;;;;;;24.90;74.60;;;;;;5078780;28;20024;-69
2022/05/27 11:23:38;;;;;;;;;;;25.20;72.00;;;;;;5077471;28;19918;-70
2022/05/27 11:26:22;;;;;;;;;;;25.30;69.50;;;;;;5077815;28;19947;-70
2022/05/27 11:29:36;;;;;;;2.80;0.80;;;25.20;70.00;;;;;;5080506;28;19953;-70
2022/05/27 11:32:11;;;;;;;3.05;1.20;;;25.20;68.60;;;;;;5008083;28;20085;-69
2022/05/27 11:34:44;;;;;;;3.10;0.83;;;25.20;70.20;;;;;;5079250;28;20031;-71
2022/05/27 11:37:32;;;;;;;3.35;0.90;;;25.30;66.20;;;;;;5076807;28;20028;-70
2022/05/27 11:40:40;;;;;;;2.75;1.02;;;25.30;67.70;;;;;;5076857;28;20088;-68
2022/05/27 11:43:27;;;;;;;3.20;1.00;;;25.40;69.70;;;;;;5063569;28;20047;-70
2022/05/27 11:46:16;;;;;;;;;;;25.50;67.40;;;;;;5077055;28;20027;-70
2022/05/27 11:48:45;;;;;;;;;;;25.60;66.40;;;;;;5077579;28;19970;-70
2022/05/27 11:51:18;;;;;;;1.75;0.80;;;25.80;63.90;;;;;;5076697;28;19993;-70
2022/05/27 11:54:00;;;;;;;2.93;0.80;;;25.80;68.10;;;;;;5076915;28;20365;-71
2022/05/27 11:56:56;;;;;;;1.52;0.70;;;25.70;66.20;;;;;;5058683;28;19912;-71
2022/05/27 11:59:24;;;;;;;;;;;25.60;67.20;;;;;;5077539;28;20468;-70
2022/05/27 12:01:56;;;;;;;1.73;0.50;;;25.60;66.50;;;;;;5076535;28;19911;-70
2022/05/27 12:04:54;;;;;;;3.63;0.65;;;25.60;67.40;;;;;;5076098;28;20561;-69
2022/05/27 12:07:24;;;;;;;1.83;0.60;;;25.60;67.10;;;;;;5074161;28;20082;-68
2022/05/27 12:10:11;;;;;;;1.10;0.52;;;25.80;66.70;;;;;;5074261;28;20335;-69
2022/05/27 12:12:42;;;;;;;;;;;25.50;64.30;;;;;;5074631;28;20096;-69
2022/05/27 12:15:16;;;;;;;2.85;0.80;;;25.40;64.40;;;;;;5056897;28;19942;-69
2022/05/27 12:17:51;;;;;;;2.53;0.55;;;25.40;67.00;;;;;;5074683;28;19905;-68
2022/05/27 12:20:37;;;;;;;;;;;25.50;63.70;;;;;;5075114;28;20024;-69
2022/05/27 12:23:08;;;;;;;1.45;0.60;;;25.40;63.90;;;;;;5075654;28;19905;-70
2022/05/27 12:25:48;;;;;;;2.03;0.43;;;25.40;66.10;;;;;;5076093;28;20046;-70
2022/05/27 12:28:15;;;;;;;;;;;25.50;63.90;;;;;;5076494;28;20035;-70
2022/05/27 12:30:43;;;;;;;3.80;0.98;;;25.40;64.30;;;;;;5075647;28;19904;-69
2022/05/27 12:33:17;;;;;;;1.42;0.63;;;25.40;65.80;;;;;;5075916;28;20024;-69
2022/05/27 12:35:47;;;;;;;2.25;0.80;;;25.30;66.30;;;;;;5076254;28;20447;-70
2022/05/27 12:38:23;;;;;;;1.65;0.60;;;25.10;64.80;;;;;;5076053;28;20028;-69
2022/05/27 12:40:58;;;;;;;3.20;0.90;;;25.00;64.50;;;;;;5078610;28;20366;-69
2022/05/27 12:43:28;;;;;;;2.50;0.80;;;25.10;65.80;;;;;;5075879;28;20507;-70
2022/05/27 12:46:00;;;;;;;3.00;1.00;;;25.10;65.80;;;;;;5076116;28;20257;-70
2022/05/27 12:48:28;;;;;;;1.20;0.70;;;25.30;64.10;;;;;;5075919;28;20473;-70
2022/05/27 12:51:14;;;;;;;1.90;0.80;;;25.40;63.40;;;;;;5075806;28;20391;-69
2022/05/27 12:53:44;;;;;;;;;;;25.50;65.40;;;;;;5075762;28;20061;-70
2022/05/27 13:02:13;;;;;;;;;;;25.90;66.30;;;;;;5075708;28;19950;-70
2022/05/27 13:04:50;;;;;;;;;;;25.90;62.20;;;;;;5075595;28;20349;-69
2022/05/27 13:07:20;;;;;;;;;;;25.90;62.80;;;;;;5075225;28;19952;-69
2022/05/27 13:09:47;;;;;;;;;;;25.90;62.30;;;;;;5075851;28;19969;-70
2022/05/27 13:12:31;;;;;;;;;;;25.90;63.70;;;;;;5075683;28;19909;-70
2022/05/27 13:15:06;;;;;;;;;;;26.00;61.50;;;;;;5057487;28;19909;-70
2022/05/27 13:17:34;;;;;;;;;;;26.00;62.60;;;;;;5057764;28;20265;-70
2022/05/27 13:20:19;;;;;;;;;;;25.90;63.10;;;;;;5075330;28;19958;-70
2022/05/27 13:23:10;;;;;;;;;;;25.80;61.70;;;;;;5075315;28;19920;-70
2022/05/27 13:25:42;;;;;;;;;;;25.60;63.80;;;;;;5075336;28;19930;-71
2022/05/27 13:28:12;;;;;;;;;;;25.70;61.80;;;;;;5075451;28;19912;-70
2022/05/27 13:30:47;;;;;;;;;;;25.70;63.30;;;;;;5075127;28;20307;-70
2022/05/27 13:33:12;;;;;;;;;;;25.60;64.70;;;;;;5056550;28;19908;-71
2022/05/27 13:35:40;;;;;;;;;;;25.70;64.80;;;;;;5074881;28;19953;-70
2022/05/27 13:38:09;;;;;;;;;;;25.60;61.60;;;;;;5074808;28;19967;-70
2022/05/27 13:40:35;;;;;;;;;;;25.40;63.10;;;;;;5074695;28;20028;-70
2022/05/27 13:43:23;;;;;;;;;;;25.50;62.10;;;;;;5073936;28;20039;-70
2022/05/27 13:45:52;;;;;;;;;;;25.60;61.50;;;;;;5074894;28;20280;-70
2022/05/27 13:48:40;;;;;;;;;;;25.60;62.30;;;;;;5075204;28;20348;-69
2022/05/27 13:51:07;;;;;;;;;;;25.60;62.80;;;;;;5056802;28;19904;-69
2022/05/27 13:53:32;;;;;;;;;;;25.70;61.40;;;;;;5074602;28;19904;-70
2022/05/27 13:56:16;;;;;;;;;;;25.60;62.20;;;;;;5074599;28;20344;-69
2022/05/27 13:59:01;;;;;;;;;;;25.80;61.00;;;;;;5074562;28;20345;-69
2022/05/27 14:01:42;;;;;;;;;;;25.60;62.40;;;;;;5074962;28;20345;-70
2022/05/27 14:04:33;;;;;;;;;;;25.50;61.70;;;;;;5112415;27;19912;-69
2022/05/27 14:06:59;;;;;;;;;;;25.30;62.10;;;;;;5111963;28;19912;-69
2022/05/27 14:09:26;;;;;;;;;;;25.30;63.60;;;;;;5111599;28;20419;-69
2022/05/27 14:11:55;;;;;;;;;;;25.20;61.60;;;;;;5108510;28;19916;-69
2022/05/27 14:14:22;;;;;;;;;;;25.30;63.10;;;;;;5111460;28;19948;-69
2022/05/27 14:16:48;;;;;;;;;;;25.20;62.70;;;;;;5109268;28;19908;-68
2022/05/27 14:19:18;;;;;;;;;;;25.00;61.40;;;;;;5107769;28;19918;-68
2022/05/27 14:24:33;;;;;;;;;;;24.90;61.90;;;;;;5111352;28;19962;-69
2022/05/27 14:27:00;;;;;;;;;;;24.70;64.10;;;;;;5100940;28;19987;-69
2022/05/27 14:29:26;;;;;;;;;;;24.90;64.80;;;;;;5089272;28;19908;-69
2022/05/27 14:32:00;;;;;;;;;;;24.90;63.50;;;;;;5089301;28;20531;-68
2022/05/27 14:34:28;;;;;;;;;;;25.00;62.00;;;;;;5091432;28;19958;-67
2022/05/27 14:37:03;;;;;;;;;;;25.20;61.30;;;;;;5090253;28;19909;-69
2022/05/27 14:39:28;;;;;;;;;;;25.40;61.50;;;;;;5090508;28;20217;-69
2022/05/27 14:41:54;;;;;;;;;;;25.50;60.80;;;;;;5090672;28;20366;-69
2022/05/27 14:44:26;;;;;;;;;;;25.60;60.50;;;;;;5091126;28;20406;-68
2022/05/27 14:47:09;;;;;;;;;;;25.70;60.70;;;;;;5090789;28;19909;-67
2022/05/27 14:49:54;;;;;;;;;;;25.60;60.50;;;;;;5090494;28;19910;-69
2022/05/27 14:52:26;;;;;;;;;;;25.40;60.60;;;;;;5090525;28;19908;-69
2022/05/27 14:55:04;;;;;;;;;;;25.30;61.30;;;;;;5090392;28;20315;-69
2022/05/27 14:57:38;;;;;;;;;;;25.60;63.00;;;;;;5090295;28;19908;-69
2022/05/27 15:00:06;;;;;;;;;;;25.90;61.40;;;;;;5090565;28;20011;-69
2022/05/27 15:02:48;;;;;;;;;;;26.20;60.50;;;;;;5096269;28;20273;-69
2022/05/27 15:05:27;;;;;;;;;;;26.20;59.80;;;;;;5110606;28;20372;-69
2022/05/27 15:07:53;;;;;;;;;;;26.30;60.10;;;;;;5110827;28;20310;-69
2022/05/27 15:10:31;;;;;;;;;;;26.40;59.60;;;;;;5110492;28;19912;-69